createdAt,value
2023-01-20T00:01:31.830Z,2.84
2023-01-20T00:03:59.301Z,2.83
2023-01-20T00:06:30.255Z,2.82
2023-01-20T00:08:59.697Z,2.81
2023-01-20T00:11:27.347Z,2.80
2023-01-20T00:13:56.097Z,2.79
2023-01-20T00:16:23.868Z,2.78
2023-01-20T00:18:51.564Z,2.78
2023-01-20T00:21:19.002Z,2.76
2023-01-20T00:23:47.001Z,2.74
2023-01-20T00:26:19.399Z,2.73
2023-01-20T00:28:46.963Z,2.72
2023-01-20T00:31:19.165Z,2.71
2023-01-20T00:33:46.847Z,2.70
2023-01-20T00:36:14.303Z,2.71
2023-01-20T00:38:41.224Z,2.73
2023-01-20T00:41:08.455Z,2.74
2023-01-20T00:43:36.208Z,2.74
2023-01-20T00:46:04.313Z,2.71
2023-01-20T00:48:32.458Z,2.69
2023-01-20T00:50:59.482Z,2.68
2023-01-20T00:53:26.779Z,2.67
2023-01-20T00:55:54.260Z,2.65
2023-01-20T00:58:21.493Z,2.65
2023-01-20T01:00:49.944Z,2.64
2023-01-20T01:03:17.491Z,2.61
2023-01-20T01:05:44.980Z,2.58
2023-01-20T01:08:12.473Z,2.56
2023-01-20T01:10:40.702Z,2.54
2023-01-20T01:13:08.393Z,2.53
2023-01-20T01:15:36.086Z,2.52
2023-01-20T01:18:03.983Z,2.50
2023-01-20T01:20:31.213Z,2.49
2023-01-20T01:22:58.659Z,2.48
2023-01-20T01:25:25.976Z,2.46
2023-01-20T01:27:53.351Z,2.45
2023-01-20T01:30:20.934Z,2.45
2023-01-20T01:32:48.496Z,2.43
2023-01-20T01:35:16.440Z,2.43
2023-01-20T01:37:44.012Z,2.42
2023-01-20T01:40:11.966Z,2.41
2023-01-20T01:42:41.341Z,2.40
2023-01-20T01:45:13.771Z,2.39
2023-01-20T01:48:02.589Z,2.40
2023-01-20T01:50:40.477Z,2.40
2023-01-20T01:53:07.551Z,2.40
2023-01-20T01:55:36.184Z,2.39
2023-01-20T01:58:03.099Z,2.39
2023-01-20T02:00:30.076Z,2.38
2023-01-20T02:02:57.161Z,2.37
2023-01-20T02:05:24.396Z,2.36
2023-01-20T02:07:51.301Z,2.35
2023-01-20T02:10:18.257Z,2.34
2023-01-20T02:12:47.512Z,2.33
2023-01-20T02:15:15.188Z,2.32
2023-01-20T02:17:54.058Z,2.29
2023-01-20T02:20:50.552Z,2.28
2023-01-20T02:23:26.768Z,2.26
2023-01-20T02:26:15.960Z,2.24
2023-01-20T02:29:05.797Z,2.20
2023-01-20T02:31:51.839Z,2.18
2023-01-20T02:34:27.832Z,2.16
2023-01-20T02:37:00.524Z,2.13
2023-01-20T02:39:29.049Z,2.09
2023-01-20T02:42:19.156Z,2.05
2023-01-20T02:45:09.931Z,2.02
2023-01-20T02:47:50.968Z,2.00
2023-01-20T02:50:48.577Z,1.97
2023-01-20T02:53:15.900Z,1.95
2023-01-20T02:55:46.490Z,1.93
2023-01-20T02:58:29.166Z,1.95
2023-01-20T03:01:43.241Z,1.96
2023-01-20T03:04:11.175Z,1.95
2023-01-20T03:06:39.852Z,1.95
2023-01-20T03:09:08.088Z,1.94
2023-01-20T03:11:36.513Z,1.91
2023-01-20T03:14:12.393Z,1.90
2023-01-20T03:16:39.804Z,1.90
2023-01-20T03:19:07.321Z,1.87
2023-01-20T03:21:34.640Z,1.85
2023-01-20T03:24:03.062Z,1.83
2023-01-20T03:26:31.336Z,1.80
2023-01-20T03:28:59.293Z,1.77
2023-01-20T03:31:29.354Z,1.76
2023-01-20T03:33:58.509Z,1.76
2023-01-20T03:36:27.320Z,1.76
2023-01-20T03:38:54.913Z,1.76
2023-01-20T03:41:33.554Z,1.76
2023-01-20T03:44:26.242Z,1.77
2023-01-20T03:46:53.818Z,1.80
2023-01-20T03:49:44.797Z,1.80
2023-01-20T03:52:47.734Z,1.80
2023-01-20T03:55:20.937Z,1.80
2023-01-20T03:57:59.331Z,1.79
2023-01-20T04:00:26.869Z,1.79
2023-01-20T04:02:57.380Z,1.78
2023-01-20T04:05:24.772Z,1.77
2023-01-20T04:07:52.219Z,1.76
2023-01-20T04:10:19.764Z,1.76
2023-01-20T04:12:47.171Z,1.76
2023-01-20T04:15:14.905Z,1.75
2023-01-20T04:17:42.529Z,1.77
2023-01-20T04:20:10.758Z,1.77
2023-01-20T04:22:46.679Z,1.76
2023-01-20T04:25:20.911Z,1.75
2023-01-20T04:27:48.546Z,1.75
2023-01-20T04:30:15.989Z,1.73
2023-01-20T04:32:43.370Z,1.71
2023-01-20T04:35:13.704Z,1.71
2023-01-20T04:37:41.597Z,1.71
2023-01-20T04:40:10.009Z,1.73
2023-01-20T04:42:37.580Z,1.75
2023-01-20T04:45:05.581Z,1.77
2023-01-20T04:47:33.883Z,1.78
2023-01-20T04:50:01.325Z,1.79
2023-01-20T04:52:28.784Z,1.79
2023-01-20T04:54:56.327Z,1.79
2023-01-20T04:57:23.812Z,1.78
2023-01-20T04:59:51.316Z,1.77
2023-01-20T05:02:18.917Z,1.76
2023-01-20T05:04:46.721Z,1.74
2023-01-20T05:07:14.129Z,1.72
2023-01-20T05:09:41.483Z,1.72
2023-01-20T05:12:08.831Z,1.73
2023-01-20T05:14:36.286Z,1.73
2023-01-20T05:17:03.642Z,1.70
2023-01-20T05:19:31.089Z,1.68
2023-01-20T05:21:59.882Z,1.65
2023-01-20T05:24:27.157Z,1.62
2023-01-20T05:26:54.664Z,1.60
2023-01-20T05:29:22.119Z,1.57
2023-01-20T05:31:49.874Z,1.54
2023-01-20T05:34:17.445Z,1.53
2023-01-20T05:36:44.840Z,1.52
2023-01-20T05:39:12.213Z,1.49
2023-01-20T05:41:39.619Z,1.49
2023-01-20T05:44:07.128Z,1.49
2023-01-20T05:46:34.682Z,1.49
2023-01-20T05:49:03.289Z,1.49
2023-01-20T05:51:30.889Z,1.49
2023-01-20T05:53:58.546Z,1.49
2023-01-20T05:56:26.045Z,1.49
2023-01-20T05:58:56.466Z,1.49
2023-01-20T06:01:24.145Z,1.50
2023-01-20T06:03:51.632Z,1.50
2023-01-20T06:06:19.540Z,1.50
2023-01-20T06:08:49.404Z,1.50
2023-01-20T06:11:18.754Z,1.50
2023-01-20T06:13:49.395Z,1.52
2023-01-20T06:16:17.574Z,1.54
2023-01-20T06:18:45.030Z,1.56
2023-01-20T06:21:12.791Z,1.58
2023-01-20T06:23:40.400Z,1.60
2023-01-20T06:26:10.645Z,1.62
2023-01-20T06:28:37.981Z,1.65
2023-01-20T06:31:07.443Z,1.67
2023-01-20T06:33:35.273Z,1.70
2023-01-20T06:36:02.708Z,1.73
2023-01-20T06:38:31.586Z,1.75
2023-01-20T06:41:03.526Z,1.78
2023-01-20T06:43:31.943Z,1.81
2023-01-20T06:46:06.983Z,1.84
2023-01-20T06:48:34.740Z,1.87
2023-01-20T06:51:06.777Z,1.91
2023-01-20T06:53:34.413Z,1.94
2023-01-20T06:56:01.988Z,1.97
2023-01-20T06:58:30.817Z,2.01
2023-01-20T07:00:58.548Z,2.04
2023-01-20T07:03:26.038Z,2.09
2023-01-20T07:06:01.199Z,2.13
2023-01-20T07:08:28.816Z,2.17
2023-01-20T07:10:56.381Z,2.21
2023-01-20T07:13:24.065Z,2.24
2023-01-20T07:15:51.411Z,2.27
2023-01-20T10:41:42.967Z,8.19
2023-01-20T10:44:12.586Z,8.51
2023-01-20T10:47:19.308Z,8.54
2023-01-20T10:50:20.525Z,8.56
2023-01-20T10:53:07.369Z,8.61
2023-01-20T10:56:09.120Z,8.57
2023-01-20T10:58:37.206Z,8.55
2023-01-20T11:01:07.082Z,8.54
2023-01-20T11:03:36.953Z,8.59
2023-01-20T11:06:04.679Z,8.71
2023-01-20T11:08:32.229Z,8.80
2023-01-20T11:11:01.885Z,8.85
2023-01-20T11:13:29.287Z,8.91
2023-01-20T11:15:57.819Z,8.93
2023-01-20T11:18:30.041Z,8.96
2023-01-20T11:21:08.663Z,9.07
2023-01-20T11:23:38.948Z,9.29
2023-01-20T11:26:15.511Z,9.54
2023-01-20T11:28:57.238Z,9.67
2023-01-20T11:31:45.173Z,9.68
2023-01-20T11:34:27.729Z,9.70
2023-01-20T11:37:14.251Z,9.83
2023-01-20T11:39:50.737Z,10.16
2023-01-20T11:42:26.149Z,10.51
2023-01-20T11:45:19.563Z,10.72
2023-01-20T11:48:02.992Z,10.71
2023-01-20T11:50:32.470Z,10.54
2023-01-20T11:53:22.245Z,10.35
2023-01-20T11:55:57.373Z,10.19
2023-01-20T11:58:26.446Z,10.04
2023-01-20T12:01:05.682Z,9.92
2023-01-20T12:03:45.357Z,9.83
2023-01-20T12:06:21.843Z,9.75
2023-01-20T12:08:56.689Z,9.78
2023-01-20T12:11:51.835Z,9.84
2023-01-20T12:14:23.779Z,9.82
2023-01-20T12:17:03.522Z,9.66
2023-01-20T12:19:42.401Z,9.47
2023-01-20T12:22:14.245Z,9.32
2023-01-20T12:25:08.741Z,9.31
2023-01-20T12:27:41.863Z,9.47
2023-01-20T12:30:25.086Z,9.76
2023-01-20T12:32:52.687Z,9.85
2023-01-20T12:35:20.114Z,9.79
2023-01-20T12:38:04.855Z,9.71
2023-01-20T12:40:52.673Z,9.65
2023-01-20T12:43:32.482Z,9.52
2023-01-20T12:46:39.971Z,9.44
2023-01-20T12:49:36.393Z,9.35
2023-01-20T12:52:20.213Z,9.20
2023-01-20T12:54:54.917Z,9.04
2023-01-20T12:57:52.382Z,8.95
2023-01-20T13:00:25.282Z,8.93
2023-01-20T13:02:59.095Z,8.93
2023-01-20T13:05:57.453Z,8.98
2023-01-20T13:09:03.273Z,9.04
2023-01-20T13:11:51.904Z,8.95
2023-01-20T13:14:25.794Z,8.84
2023-01-20T13:17:26.027Z,8.69
2023-01-20T13:19:54.257Z,8.46
2023-01-20T13:22:23.867Z,8.27
2023-01-20T13:24:55.618Z,8.06
2023-01-20T13:27:30.609Z,7.89
2023-01-20T13:29:59.408Z,7.79
2023-01-20T13:32:28.847Z,7.69
2023-01-20T13:34:56.644Z,7.50
2023-01-20T13:37:28.856Z,7.29
2023-01-20T13:39:58.284Z,7.08
2023-01-20T13:42:38.821Z,6.89
2023-01-20T13:45:14.798Z,6.71
2023-01-20T13:48:08.440Z,6.58
2023-01-20T13:50:37.343Z,6.44
2023-01-20T13:53:10.989Z,6.33
2023-01-20T13:55:45.703Z,6.18
2023-01-20T13:58:15.941Z,6.05
2023-01-20T14:00:43.877Z,5.95
2023-01-20T14:03:38.409Z,5.86
2023-01-20T14:06:12.171Z,5.73
2023-01-20T14:08:43.915Z,5.61
2023-01-20T14:11:15.781Z,5.49
2023-01-20T14:13:51.807Z,5.39
2023-01-20T14:16:25.089Z,5.29
2023-01-20T14:18:53.474Z,5.18
2023-01-20T14:21:24.758Z,5.08
2023-01-20T14:23:52.328Z,4.99
2023-01-20T14:26:30.364Z,4.92
2023-01-20T14:29:03.887Z,4.83
2023-01-20T14:31:37.230Z,4.75
2023-01-20T14:34:26.977Z,4.67
2023-01-20T14:36:55.825Z,4.58
2023-01-20T14:39:28.186Z,4.52
2023-01-20T14:41:56.520Z,4.45
2023-01-20T14:44:25.882Z,4.39
2023-01-20T14:46:55.918Z,4.32
2023-01-20T14:49:28.053Z,4.25
2023-01-20T14:51:55.471Z,4.19
2023-01-20T14:54:39.577Z,4.12
2023-01-20T14:57:18.459Z,4.04
2023-01-20T14:59:45.900Z,3.95
2023-01-20T15:02:28.294Z,3.88
2023-01-20T15:04:55.866Z,3.80
2023-01-20T15:07:23.277Z,3.73
2023-01-20T15:10:04.696Z,3.67
2023-01-20T15:12:34.221Z,3.60
2023-01-20T15:15:13.817Z,3.51
2023-01-20T15:18:09.467Z,3.43
2023-01-20T15:20:39.036Z,3.35
2023-01-20T15:23:23.187Z,3.26
2023-01-20T15:25:52.367Z,3.18
2023-01-20T15:28:42.425Z,3.09
2023-01-20T15:31:14.700Z,2.99
2023-01-20T15:33:42.330Z,2.91
2023-01-20T15:36:30.153Z,2.84
2023-01-20T15:38:57.577Z,2.74
2023-01-20T15:41:25.228Z,2.65
2023-01-20T15:43:52.760Z,2.56
2023-01-20T15:46:20.430Z,2.47
2023-01-20T15:48:48.396Z,2.39
2023-01-20T15:51:18.210Z,2.31
2023-01-20T15:53:46.488Z,2.24
2023-01-20T15:56:20.975Z,2.18
2023-01-20T15:58:49.801Z,2.13
2023-01-20T16:01:19.399Z,2.08
2023-01-20T16:03:46.819Z,2.03
2023-01-20T16:06:15.971Z,1.95
2023-01-20T16:08:46.554Z,1.89
2023-01-20T16:11:15.257Z,1.82
2023-01-20T16:13:42.866Z,1.77
2023-01-20T16:16:15.992Z,1.71
2023-01-20T16:18:43.368Z,1.64
2023-01-20T16:21:12.170Z,1.59
2023-01-20T16:23:39.666Z,1.54
2023-01-20T16:26:27.047Z,1.50
2023-01-20T16:28:57.562Z,1.43
2023-01-20T16:31:27.240Z,1.38
2023-01-20T16:33:55.044Z,1.32
2023-01-20T20:44:30.084Z,-0.22
2023-01-20T20:46:58.445Z,-0.14
2023-01-20T20:49:26.584Z,-0.14
2023-01-20T20:51:54.085Z,-0.15
2023-01-20T20:54:21.660Z,-0.16
2023-01-20T20:56:49.486Z,-0.16
2023-01-20T20:59:19.848Z,-0.16
2023-01-20T21:01:47.477Z,-0.16
2023-01-20T21:04:16.000Z,-0.17
2023-01-20T21:06:43.783Z,-0.17
2023-01-20T21:09:11.271Z,-0.17
2023-01-20T21:11:38.949Z,-0.18
2023-01-20T21:14:07.665Z,-0.18
2023-01-20T21:16:35.502Z,-0.18
2023-01-20T21:19:03.533Z,-0.20
2023-01-20T21:21:30.953Z,-0.19
2023-01-20T21:23:58.916Z,-0.20
2023-01-20T21:26:29.824Z,-0.18
2023-01-20T21:28:57.899Z,-0.17
2023-01-20T21:31:26.865Z,-0.16
2023-01-20T21:33:55.643Z,-0.16
2023-01-20T21:36:23.465Z,-0.15
2023-01-20T21:38:51.071Z,-0.15
2023-01-20T21:41:18.835Z,-0.14
2023-01-20T21:44:06.071Z,-0.14
2023-01-20T21:46:39.277Z,-0.13
2023-01-20T21:49:27.180Z,-0.13
2023-01-20T21:52:14.185Z,-0.13
2023-01-20T21:54:41.819Z,-0.14
2023-01-20T21:57:09.501Z,-0.14
2023-01-20T21:59:37.223Z,-0.13
2023-01-20T22:02:05.161Z,-0.14
2023-01-20T22:04:33.118Z,-0.15
2023-01-20T22:07:00.626Z,-0.16
2023-01-20T22:09:27.989Z,-0.18
2023-01-20T22:11:55.597Z,-0.19
2023-01-20T22:14:22.957Z,-0.19
2023-01-20T22:16:50.409Z,-0.21
2023-01-20T22:19:17.805Z,-0.22
2023-01-20T22:21:45.185Z,-0.25
2023-01-20T22:24:12.644Z,-0.27
2023-01-20T22:26:40.449Z,-0.27
2023-01-20T22:29:07.979Z,-0.28
2023-01-20T22:31:35.400Z,-0.29
2023-01-20T22:34:04.779Z,-0.30
2023-01-20T22:36:32.670Z,-0.31
2023-01-20T22:39:00.165Z,-0.32
2023-01-20T22:41:27.687Z,-0.33
2023-01-20T22:43:56.009Z,-0.33
2023-01-20T22:46:24.716Z,-0.33
2023-01-20T22:48:52.447Z,-0.34
2023-01-20T22:51:21.680Z,-0.34
2023-01-20T22:53:50.531Z,-0.35
2023-01-20T22:56:19.959Z,-0.37
2023-01-20T22:58:47.755Z,-0.39
2023-01-20T23:01:17.388Z,-0.42
2023-01-20T23:03:45.226Z,-0.44
2023-01-20T23:06:12.817Z,-0.45
2023-01-20T23:08:40.507Z,-0.46
2023-01-20T23:11:15.441Z,-0.47
2023-01-20T23:13:42.911Z,-0.47
2023-01-20T23:16:13.355Z,-0.48
2023-01-20T23:18:40.908Z,-0.50
2023-01-20T23:21:08.471Z,-0.52
2023-01-20T23:23:35.860Z,-0.54
2023-01-20T23:26:08.532Z,-0.55
2023-01-20T23:28:36.324Z,-0.57
2023-01-20T23:31:08.220Z,-0.58
2023-01-20T23:33:35.655Z,-0.59
2023-01-20T23:36:06.727Z,-0.61
2023-01-20T23:38:34.224Z,-0.65
2023-01-20T23:41:02.624Z,-0.67
2023-01-20T23:43:31.055Z,-0.69
2023-01-20T23:45:59.471Z,-0.69
2023-01-20T23:48:27.186Z,-0.70
2023-01-20T23:50:56.464Z,-0.72
2023-01-20T23:53:24.074Z,-0.73
2023-01-20T23:55:53.240Z,-0.73
2023-01-20T23:58:20.567Z,-0.73
